Time;durP1;ratioP1;P1;durP2;ratioP2;P2;SDS_P1;SDS_P2;PMS_P1;PMS_P2;Temp;Humidity;BMP_temperature;BMP_pressure;BME280_temperature;BME280_humidity;BME280_pressure;Samples;Min_cycle;Max_cycle;Signal;HPM_P1;HPM_P2
2022/10/25 00:00:05;;;;;;;8.67;1.77;;;;;;;;;;5019923;28;20030;-79
2022/10/25 00:02:35;;;;;;;9.20;1.30;;;;;;;;;;5020104;28;20026;-78
2022/10/25 00:05:01;;;;;;;7.23;1.23;;;;;;;;;;5005822;28;20053;-78
2022/10/25 00:07:27;;;;;;;10.40;1.73;;;;;;;;;;5036694;28;20017;-79
2022/10/25 00:09:53;;;;;;;11.10;1.50;;;;;;;;;;5021565;28;20037;-78
2022/10/25 00:12:19;;;;;;;11.07;1.90;;;;;;;;;;5019104;28;20033;-79
2022/10/25 00:14:45;;;;;;;5.63;1.47;;;;;;;;;;5015953;28;20041;-78
2022/10/25 00:17:11;;;;;;;11.03;2.20;;;;;;;;;;5018825;28;20037;-78
2022/10/25 00:19:37;;;;;;;8.83;1.93;;;;;;;;;;5015818;28;20054;-78
2022/10/25 00:22:03;;;;;;;7.17;2.27;;;;;;;;;;5019414;28;20032;-78
2022/10/25 00:24:30;;;;;;;13.57;1.77;;;;;;;;;;5009039;28;20080;-78
2022/10/25 00:26:56;;;;;;;5.77;1.67;;;;;;;;;;5015878;28;20195;-79
2022/10/25 00:29:22;;;;;;;10.77;1.77;;;;;;;;;;5023342;28;20100;-78
2022/10/25 00:31:48;;;;;;;8.77;2.43;;;;;;;;;;5018758;28;20034;-79
2022/10/25 00:34:14;;;;;;;12.67;2.03;;;;;;;;;;5019048;28;20030;-80
2022/10/25 00:36:40;;;;;;;5.53;1.53;;;;;;;;;;5018937;28;20115;-79
2022/10/25 00:39:06;;;;;;;7.30;1.83;;;;;;;;;;5019159;28;20448;-78
2022/10/25 00:41:33;;;;;;;11.27;1.70;;;;;;;;;;5025836;28;20323;-78
2022/10/25 00:44:17;;;;;;;7.90;2.57;;;;;;;;;;5021906;28;20439;-78
2022/10/25 00:46:44;;;;;;;9.70;1.80;;;;;;;;;;5024773;28;20033;-78
2022/10/25 00:49:12;;;;;;;7.67;2.07;;;;;;;;;;5015406;28;20021;-79
2022/10/25 00:51:41;;;;;;;6.37;1.00;;;;;;;;;;5018661;28;20029;-78
2022/10/25 00:54:08;;;;;;;8.97;2.03;;;;;;;;;;5019029;28;20468;-78
2022/10/25 00:56:37;;;;;;;6.27;1.50;;;;;;;;;;5009565;28;20041;-79
2022/10/25 00:59:06;;;;;;;10.17;1.70;;;;;;;;;;5009516;28;20366;-79
2022/10/25 01:01:32;;;;;;;13.97;1.60;;;;;;;;;;5020432;28;20025;-78
2022/10/25 01:04:01;;;;;;;9.20;1.93;;;;;;;;;;5022411;28;20025;-78
2022/10/25 01:06:32;;;;;;;8.30;1.23;;;;;;;;;;5039540;28;20029;-78
2022/10/25 01:09:01;;;;;;;13.40;2.57;;;;;;;;;;5023523;28;20119;-78
2022/10/25 01:11:27;;;;;;;5.73;1.10;;;;;;;;;;5022538;28;20041;-78
2022/10/25 01:13:54;;;;;;;6.73;1.83;;;;;;;;;;5039184;28;20393;-79
2022/10/25 01:16:30;;;;;;;9.33;1.50;;;;;;;;;;5022185;28;20065;-78
2022/10/25 01:19:08;;;;;;;5.30;0.87;;;;;;;;;;5022085;28;20488;-78
2022/10/25 01:21:45;;;;;;;6.80;1.17;;;;;;;;;;5039794;28;20029;-78
2022/10/25 01:24:22;;;;;;;9.93;1.10;;;;;;;;;;5022370;28;20330;-78
2022/10/25 01:26:51;;;;;;;7.07;1.17;;;;;;;;;;5022429;28;20026;-79
2022/10/25 01:29:32;;;;;;;8.90;1.23;;;;;;;;;;5022292;28;20517;-78
2022/10/25 01:32:19;;;;;;;4.10;1.00;;;;;;;;;;5009362;28;20025;-78
2022/10/25 01:34:49;;;;;;;7.60;0.93;;;;;;;;;;5013013;28;20374;-79
2022/10/25 01:37:28;;;;;;;4.90;1.10;;;;;;;;;;5011404;28;20033;-78
2022/10/25 01:40:00;;;;;;;7.57;1.80;;;;;;;;;;5014261;28;20097;-78
2022/10/25 01:42:31;;;;;;;6.97;1.47;;;;;;;;;;5019940;28;20025;-78
2022/10/25 01:45:19;;;;;;;6.80;1.97;;;;;;;;;;5032478;28;20088;-78
2022/10/25 01:47:55;;;;;;;8.53;1.90;;;;;;;;;;5013282;28;20030;-78
2022/10/25 01:50:24;;;;;;;8.07;1.27;;;;;;;;;;5018288;28;20458;-78
2022/10/25 01:52:50;;;;;;;7.67;1.50;;;;;;;;;;5012198;28;20034;-79
2022/10/25 01:55:18;;;;;;;10.13;1.83;;;;;;;;;;5009670;28;20558;-78
2022/10/25 01:58:03;;;;;;;5.10;1.10;;;;;;;;;;5029264;28;20134;-78
2022/10/25 02:00:30;;;;;;;5.20;1.27;;;;;;;;;;5011733;28;20498;-78
2022/10/25 02:02:56;;;;;;;15.00;1.43;;;;;;;;;;5017423;28;20124;-78
2022/10/25 02:05:41;;;;;;;5.27;1.23;;;;;;;;;;5012275;28;20157;-76
2022/10/25 02:08:28;;;;;;;4.03;1.00;;;;;;;;;;5013252;28;20037;-78
2022/10/25 02:11:12;;;;;;;7.30;1.20;;;;;;;;;;5012780;28;20129;-78
2022/10/25 02:13:38;;;;;;;8.50;1.67;;;;;;;;;;5025305;28;20030;-78
2022/10/25 02:16:16;;;;;;;8.90;1.80;;;;;;;;;;5009612;28;20107;-78
2022/10/25 02:18:44;;;;;;;7.77;1.50;;;;;;;;;;5016522;28;20037;-79
2022/10/25 02:21:11;;;;;;;6.63;1.87;;;;;;;;;;5007970;28;20025;-79
2022/10/25 02:23:37;;;;;;;8.03;1.20;;;;;;;;;;5010873;28;20034;-78
2022/10/25 02:26:05;;;;;;;8.57;2.27;;;;;;;;;;5030713;28;20025;-79
2022/10/25 02:28:32;;;;;;;8.93;1.47;;;;;;;;;;5012313;28;20108;-79
2022/10/25 02:30:58;;;;;;;12.50;2.10;;;;;;;;;;5029126;28;20064;-79
2022/10/25 02:33:25;;;;;;;6.17;1.47;;;;;;;;;;5008319;28;20116;-79
2022/10/25 02:36:06;;;;;;;7.77;1.33;;;;;;;;;;5007440;28;20029;-79
2022/10/25 02:38:33;;;;;;;7.23;2.07;;;;;;;;;;5026846;28;20163;-78
2022/10/25 02:44:18;;;;;;;9.70;1.80;;;;;;;;;;5025311;28;20064;-79
2022/10/25 02:46:44;;;;;;;15.80;1.83;;;;;;;;;;5017939;28;20049;-79
2022/10/25 02:49:10;;;;;;;6.63;2.00;;;;;;;;;;5017423;28;20054;-78
2022/10/25 02:51:37;;;;;;;13.07;2.73;;;;;;;;;;5012405;28;20036;-78
2022/10/25 02:54:03;;;;;;;9.63;1.53;;;;;;;;;;5030375;28;20298;-79
2022/10/25 02:56:29;;;;;;;7.63;1.33;;;;;;;;;;5011513;28;20497;-79
2022/10/25 02:58:56;;;;;;;9.13;1.57;;;;;;;;;;5012013;28;20095;-78
2022/10/25 03:01:22;;;;;;;5.53;1.47;;;;;;;;;;5015400;28;20040;-79
2022/10/25 03:03:48;;;;;;;6.43;1.30;;;;;;;;;;5009390;28;20121;-79
2022/10/25 03:06:14;;;;;;;7.33;1.40;;;;;;;;;;5008498;28;20120;-79
2022/10/25 03:08:41;;;;;;;7.13;1.90;;;;;;;;;;5016100;28;20038;-79
2022/10/25 03:11:07;;;;;;;10.77;1.23;;;;;;;;;;5007614;28;20052;-78
2022/10/25 03:13:34;;;;;;;9.07;1.40;;;;;;;;;;5010464;28;20085;-78
2022/10/25 03:16:00;;;;;;;4.70;1.57;;;;;;;;;;5007438;28;20176;-79
2022/10/25 03:18:26;;;;;;;5.17;1.83;;;;;;;;;;5014611;28;20044;-78
2022/10/25 03:20:52;;;;;;;7.80;1.17;;;;;;;;;;5008941;28;20330;-78
2022/10/25 03:23:18;;;;;;;11.47;1.97;;;;;;;;;;5007698;28;20494;-79
2022/10/25 03:25:44;;;;;;;6.43;1.70;;;;;;;;;;5011315;28;20355;-78
2022/10/25 03:28:10;;;;;;;7.23;1.33;;;;;;;;;;5031267;28;20026;-78
2022/10/25 03:30:36;;;;;;;5.60;2.03;;;;;;;;;;5011818;28;20036;-78
2022/10/25 03:33:02;;;;;;;5.43;1.57;;;;;;;;;;5009617;28;20030;-79
2022/10/25 03:35:28;;;;;;;8.13;1.60;;;;;;;;;;5028436;28;20037;-79
2022/10/25 03:37:54;;;;;;;7.60;1.40;;;;;;;;;;5019366;28;20044;-78
2022/10/25 03:40:20;;;;;;;9.40;1.63;;;;;;;;;;5019703;28;20052;-79
2022/10/25 03:42:46;;;;;;;5.63;1.57;;;;;;;;;;5021032;28;20030;-79
2022/10/25 03:45:13;;;;;;;5.73;1.60;;;;;;;;;;5013820;28;20033;-79
2022/10/25 03:47:39;;;;;;;9.80;1.77;;;;;;;;;;5019139;28;20388;-79
2022/10/25 03:50:06;;;;;;;5.17;1.87;;;;;;;;;;5018743;28;20426;-78
2022/10/25 03:52:32;;;;;;;8.97;2.03;;;;;;;;;;5008299;28;20033;-79
2022/10/25 03:54:58;;;;;;;9.10;2.37;;;;;;;;;;5022346;28;20038;-79
2022/10/25 03:57:24;;;;;;;10.87;1.90;;;;;;;;;;5007643;28;20021;-79
2022/10/25 03:59:50;;;;;;;12.00;2.67;;;;;;;;;;5015121;28;20044;-78
2022/10/25 04:02:16;;;;;;;9.10;2.13;;;;;;;;;;5016576;28;20030;-78
2022/10/25 04:04:44;;;;;;;7.03;2.10;;;;;;;;;;5035183;28;20021;-78
2022/10/25 04:07:10;;;;;;;14.63;3.03;;;;;;;;;;5016401;28;20026;-78
2022/10/25 04:09:36;;;;;;;14.37;2.40;;;;;;;;;;5012871;28;20075;-78
2022/10/25 04:12:03;;;;;;;11.03;2.83;;;;;;;;;;5016570;28;20045;-78
2022/10/25 04:14:29;;;;;;;13.17;2.70;;;;;;;;;;5015208;28;20258;-77
2022/10/25 04:16:55;;;;;;;13.23;2.37;;;;;;;;;;5017228;28;20030;-78
2022/10/25 04:19:21;;;;;;;9.30;2.30;;;;;;;;;;5033626;28;20033;-78
2022/10/25 04:21:47;;;;;;;15.57;2.50;;;;;;;;;;5016822;28;20029;-78
2022/10/25 04:24:13;;;;;;;8.50;2.40;;;;;;;;;;5022207;28;20034;-78
2022/10/25 04:26:39;;;;;;;6.87;2.73;;;;;;;;;;5014873;28;20026;-78
2022/10/25 04:29:05;;;;;;;11.60;2.87;;;;;;;;;;5017917;28;20052;-78
2022/10/25 04:31:31;;;;;;;8.90;2.30;;;;;;;;;;5004584;28;20029;-77
2022/10/25 04:33:57;;;;;;;5.57;2.00;;;;;;;;;;5035062;28;20041;-78
2022/10/25 04:36:24;;;;;;;12.83;3.37;;;;;;;;;;5007034;28;20037;-78
2022/10/25 04:38:50;;;;;;;13.07;3.23;;;;;;;;;;5021638;28;20099;-78
2022/10/25 04:41:17;;;;;;;9.93;2.63;;;;;;;;;;5006408;28;20029;-78
2022/10/25 04:43:43;;;;;;;10.00;2.63;;;;;;;;;;5011566;28;20030;-78
2022/10/25 04:46:09;;;;;;;8.77;2.20;;;;;;;;;;5020270;28;20041;-78
2022/10/25 04:48:38;;;;;;;14.37;2.87;;;;;;;;;;5019049;28;20025;-78
2022/10/25 04:51:05;;;;;;;11.77;2.97;;;;;;;;;;5038720;28;20346;-78
2022/10/25 04:53:31;;;;;;;8.93;2.60;;;;;;;;;;5022879;28;20041;-78
2022/10/25 04:55:58;;;;;;;10.63;2.87;;;;;;;;;;5009883;28;20041;-78
2022/10/25 04:58:25;;;;;;;11.90;2.60;;;;;;;;;;5021611;28;20612;-78
2022/10/25 05:00:51;;;;;;;10.87;1.93;;;;;;;;;;5025076;28;20029;-78
2022/10/25 05:03:17;;;;;;;6.90;2.07;;;;;;;;;;5030205;28;20026;-78
2022/10/25 05:05:43;;;;;;;9.80;2.87;;;;;;;;;;5034289;28;20160;-78
2022/10/25 05:08:09;;;;;;;12.17;2.53;;;;;;;;;;5007416;28;20061;-78
2022/10/25 05:10:36;;;;;;;9.77;2.03;;;;;;;;;;5032859;28;20029;-78
2022/10/25 05:13:02;;;;;;;7.20;2.03;;;;;;;;;;5001443;28;20037;-78
2022/10/25 05:15:28;;;;;;;11.70;2.60;;;;;;;;;;5015254;28;20095;-78
2022/10/25 05:17:57;;;;;;;10.43;2.20;;;;;;;;;;5008096;28;20052;-78
2022/10/25 05:20:24;;;;;;;7.47;2.27;;;;;;;;;;5025235;28;20022;-78
2022/10/25 05:22:50;;;;;;;11.20;2.63;;;;;;;;;;5015163;28;20026;-78
2022/10/25 05:25:16;;;;;;;8.60;2.90;;;;;;;;;;5012318;28;20041;-78
2022/10/25 05:27:42;;;;;;;6.67;2.60;;;;;;;;;;5017572;28;20037;-78
2022/10/25 05:30:08;;;;;;;8.17;2.30;;;;;;;;;;5027981;28;20036;-79
2022/10/25 05:32:34;;;;;;;11.83;2.97;;;;;;;;;;5037703;28;20112;-78
2022/10/25 05:35:00;;;;;;;19.60;3.97;;;;;;;;;;5021007;28;20079;-77
2022/10/25 05:37:26;;;;;;;13.97;3.53;;;;;;;;;;5025799;28;20042;-78
2022/10/25 05:39:54;;;;;;;14.53;3.30;;;;;;;;;;5019984;28;20131;-78
2022/10/25 05:42:21;;;;;;;10.63;3.93;;;;;;;;;;5037910;28;20026;-78
2022/10/25 05:44:47;;;;;;;8.70;2.90;;;;;;;;;;5034021;28;20033;-78
2022/10/25 05:47:13;;;;;;;9.03;3.40;;;;;;;;;;5031465;28;20030;-78
2022/10/25 05:49:41;;;;;;;13.07;4.00;;;;;;;;;;5037047;28;20052;-78
2022/10/25 05:52:07;;;;;;;7.00;2.90;;;;;;;;;;5037474;28;20477;-78
2022/10/25 05:57:36;;;;;;;13.67;3.53;;;;;;;;;;5034682;28;20076;-78
2022/10/25 06:00:03;;;;;;;16.63;3.70;;;;;;;;;;5035161;28;20033;-78
2022/10/25 06:02:36;;;;;;;14.20;3.33;;;;;;;;;;5019571;28;20033;-78
2022/10/25 06:05:02;;;;;;;13.07;3.53;;;;;;;;;;5015488;28;20049;-78
2022/10/25 06:07:29;;;;;;;13.37;3.83;;;;;;;;;;5030953;28;20033;-77
2022/10/25 06:10:21;;;;;;;17.13;4.80;;;;;;;;;;5019998;28;20017;-78
2022/10/25 06:12:47;;;;;;;11.80;3.65;;;;;;;;;;5028962;28;20091;-77
2022/10/25 06:15:39;;;;;;;17.23;3.43;;;;;;;;;;5018477;28;20025;-78
2022/10/25 06:18:07;;;;;;;17.30;4.03;;;;;;;;;;5012465;28;20021;-78
2022/10/25 06:20:33;;;;;;;18.33;3.77;;;;;;;;;;5016822;28;20033;-78
2022/10/25 06:22:59;;;;;;;15.23;3.40;;;;;;;;;;5005327;28;20462;-78
2022/10/25 06:25:25;;;;;;;12.03;3.50;;;;;;;;;;5019395;28;20034;-78
2022/10/25 06:27:51;;;;;;;24.90;4.80;;;;;;;;;;5037017;28;20020;-78
2022/10/25 06:30:17;;;;;;;15.60;4.13;;;;;;;;;;5023415;28;20029;-78
2022/10/25 06:32:43;;;;;;;14.30;3.50;;;;;;;;;;5011149;28;20033;-78
2022/10/25 06:35:09;;;;;;;12.53;4.03;;;;;;;;;;5008904;28;20129;-78
2022/10/25 06:37:35;;;;;;;14.90;4.57;;;;;;;;;;5019337;28;20125;-78
2022/10/25 06:40:04;;;;;;;12.50;4.57;;;;;;;;;;5016586;28;20029;-77
2022/10/25 06:42:32;;;;;;;12.63;3.87;;;;;;;;;;5030065;28;20036;-77
2022/10/25 06:44:58;;;;;;;11.60;3.63;;;;;;;;;;5019020;28;20489;-77
2022/10/25 06:47:27;;;;;;;12.67;3.30;;;;;;;;;;5015786;28;20037;-79
2022/10/25 06:49:53;;;;;;;10.77;3.17;;;;;;;;;;5014160;28;20022;-78
2022/10/25 06:52:19;;;;;;;8.93;2.70;;;;;;;;;;5035919;28;20102;-78
2022/10/25 06:54:45;;;;;;;10.63;3.60;;;;;;;;;;5036571;28;20029;-78
2022/10/25 06:57:11;;;;;;;12.60;3.07;;;;;;;;;;5015882;28;20091;-77
2022/10/25 06:59:39;;;;;;;11.20;3.73;;;;;;;;;;5007825;28;20032;-78
2022/10/25 07:02:05;;;;;;;6.73;2.50;;;;;;;;;;5039867;28;20036;-78
2022/10/25 07:04:31;;;;;;;12.13;3.10;;;;;;;;;;5019363;28;20018;-78
2022/10/25 07:06:58;;;;;;;8.43;2.93;;;;;;;;;;5018724;28;20029;-78
2022/10/25 07:09:28;;;;;;;14.63;3.07;;;;;;;;;;5006273;28;20460;-78
2022/10/25 07:11:54;;;;;;;9.97;2.50;;;;;;;;;;5019262;28;20039;-78
2022/10/25 07:14:20;;;;;;;10.33;2.73;;;;;;;;;;5022839;28;20022;-78
2022/10/25 07:16:48;;;;;;;10.37;2.67;;;;;;;;;;5010153;28;20079;-78
2022/10/25 07:19:14;;;;;;;7.57;2.43;;;;;;;;;;5032493;28;20046;-78
2022/10/25 07:21:40;;;;;;;8.37;2.77;;;;;;;;;;5030819;28;20379;-78
2022/10/25 07:24:09;;;;;;;5.23;2.20;;;;;;;;;;5005052;28;20037;-78
2022/10/25 07:26:36;;;;;;;7.23;1.93;;;;;;;;;;5018973;28;20087;-79
2022/10/25 07:29:04;;;;;;;12.27;3.00;;;;;;;;;;5035598;28;20510;-78
2022/10/25 07:31:32;;;;;;;9.93;2.50;;;;;;;;;;5022784;28;20155;-78
2022/10/25 07:33:59;;;;;;;7.50;2.00;;;;;;;;;;5005867;28;20030;-77
2022/10/25 07:36:26;;;;;;;10.60;2.63;;;;;;;;;;5027873;28;20110;-78
2022/10/25 07:38:52;;;;;;;8.07;2.43;;;;;;;;;;5021187;28;20052;-78
2022/10/25 07:41:18;;;;;;;7.90;2.00;;;;;;;;;;5012678;28;20029;-78
2022/10/25 07:43:44;;;;;;;9.70;1.90;;;;;;;;;;5006927;28;20030;-78
2022/10/25 07:46:11;;;;;;;8.33;2.63;;;;;;;;;;5008071;28;20040;-78
2022/10/25 07:48:37;;;;;;;6.33;1.50;;;;;;;;;;5013578;28;20344;-77
2022/10/25 07:51:07;;;;;;;12.03;2.03;;;;;;;;;;5014131;28;20033;-77
2022/10/25 07:53:33;;;;;;;9.03;1.77;;;;;;;;;;5005934;28;20030;-77
2022/10/25 07:56:00;;;;;;;7.63;2.30;;;;;;;;;;5006519;28;20060;-77
2022/10/25 07:58:26;;;;;;;9.00;2.10;;;;;;;;;;5006955;28;21824;-77
2022/10/25 08:00:52;;;;;;;9.80;2.00;;;;;;;;;;5022096;28;20033;-77
2022/10/25 08:03:20;;;;;;;9.07;2.57;;;;;;;;;;5007588;28;20044;-77
2022/10/25 08:05:47;;;;;;;8.10;2.10;;;;;;;;;;5008868;28;20049;-77
2022/10/25 08:08:14;;;;;;;11.43;2.63;;;;;;;;;;5011799;28;20018;-77
2022/10/25 08:10:43;;;;;;;5.73;2.07;;;;;;;;;;5005774;28;20033;-77
2022/10/25 08:13:09;;;;;;;7.77;2.23;;;;;;;;;;5023805;28;20037;-77
2022/10/25 08:15:35;;;;;;;11.10;3.73;;;;;;;;;;5007622;28;20029;-78
2022/10/25 08:18:02;;;;;;;14.10;5.40;;;;;;;;;;5025154;28;20026;-78
2022/10/25 08:20:28;;;;;;;13.25;5.47;;;;;;;;;;5010838;28;20052;-77
2022/10/25 08:22:58;;;;;;;8.45;3.70;;;;;;;;;;5013505;28;20053;-76
2022/10/25 08:25:24;;;;;;;12.15;3.85;;;;;;;;;;5006807;28;20067;-77
2022/10/25 08:27:50;;;;;;;12.77;4.40;;;;;;;;;;5008524;28;20033;-78
2022/10/25 08:30:16;;;;;;;9.30;2.97;;;;;;;;;;5008070;28;20385;-78
2022/10/25 08:32:45;;;;;;;8.65;3.65;;;;;;;;;;5026211;28;20125;-77
2022/10/25 08:35:11;;;;;;;8.57;3.10;;;;;;;;;;5023037;28;20046;-77
2022/10/25 08:37:37;;;;;;;8.25;3.25;;;;;;;;;;5025416;28;20033;-77
2022/10/25 08:40:03;;;;;;;7.03;1.75;;;;;;;;;;5005743;28;20030;-78
2022/10/25 08:42:29;;;;;;;10.25;3.25;;;;;;;;;;5007150;28;20033;-77
2022/10/25 08:45:10;;;;;;;20.42;7.38;;;;;;;;;;5006866;28;20037;-77
2022/10/25 08:47:39;;;;;;;32.00;15.50;;;;;;;;;;5022555;28;20030;-76
2022/10/25 08:50:05;;;;;;;46.45;22.58;;;;;;;;;;5003043;28;20446;-77
2022/10/25 08:52:41;;;;;;;40.95;18.85;;;;;;;;;;5023764;28;21685;-77
2022/10/25 08:55:15;;;;;;;39.38;16.73;;;;;;;;;;5022124;28;20033;-78
2022/10/25 08:57:45;;;;;;;30.77;13.63;;;;;;;;;;5011651;28;20034;-78
2022/10/25 09:00:11;;;;;;;14.90;6.65;;;;;;;;;;5024095;28;20073;-78
2022/10/25 09:02:54;;;;;;;19.40;7.68;;;;;;;;;;5008313;28;20034;-77
2022/10/25 09:05:38;;;;;;;13.32;3.53;;;;;;;;;;5005966;28;20030;-77
2022/10/25 09:08:04;;;;;;;12.80;3.50;;;;;;;;;;5022348;28;20017;-78
2022/10/25 09:10:51;;;;;;;10.93;2.45;;;;;;;;;;5021578;28;20036;-77
2022/10/25 09:13:25;;;;;;;9.18;2.70;;;;;;;;;;4984779;28;20049;-78
2022/10/25 09:15:51;;;;;;;11.48;2.67;;;;;;;;;;5005917;28;20022;-78
2022/10/25 09:18:18;;;;;;;8.02;3.03;;;;;;;;;;5022803;28;20099;-76
2022/10/25 09:20:51;;;;;;;12.65;3.47;;;;;;;;;;5025209;28;20029;-77
2022/10/25 09:23:20;;;;;;;10.30;3.50;;;;;;;;;;5012033;28;21653;-77
2022/10/25 09:25:55;;;;;;;8.90;3.58;;;;;;;;;;5007096;28;20041;-76
2022/10/25 09:28:31;;;;;;;6.97;1.90;;;;;;;;;;5012813;28;20438;-77
2022/10/25 09:30:58;;;;;;;5.75;1.70;;;;;;;;;;5027997;28;20100;-77
2022/10/25 09:33:29;;;;;;;7.85;2.00;;;;;;;;;;5011792;28;20033;-77
2022/10/25 09:35:57;;;;;;;9.70;4.65;;;;;;;;;;5013007;28;20029;-76
2022/10/25 09:38:23;;;;;;;10.82;1.58;;;;;;;;;;5028362;28;20040;-77
2022/10/25 09:40:50;;;;;;;9.27;3.10;;;;;;;;;;5020959;28;20025;-77
2022/10/25 09:43:19;;;;;;;6.85;1.20;;;;;;;;;;5022939;28;20096;-77
2022/10/25 09:45:50;;;;;;;6.22;1.80;;;;;;;;;;5025797;28;20026;-78
2022/10/25 09:48:22;;;;;;;5.30;1.50;;;;;;;;;;5022954;28;20180;-78
2022/10/25 09:51:08;;;;;;;4.75;1.40;;;;;;;;;;5023045;28;20025;-77
2022/10/25 09:53:37;;;;;;;4.85;1.00;;;;;;;;;;5016624;28;20152;-78
2022/10/25 09:56:04;;;;;;;15.23;3.97;;;;;;;;;;5022233;28;20423;-78
2022/10/25 09:58:31;;;;;;;7.07;1.50;;;;;;;;;;5020140;28;20026;-77
2022/10/25 10:01:05;;;;;;;23.27;2.17;;;;;;;;;;5030556;28;20040;-77
2022/10/25 10:03:32;;;;;;;9.88;1.73;;;;;;;;;;5022287;28;20037;-77
2022/10/25 10:06:01;;;;;;;8.80;1.88;;;;;;;;;;5006915;28;20116;-77
2022/10/25 10:08:31;;;;;;;5.63;1.25;;;;;;;;;;5020125;28;20060;-77
2022/10/25 10:10:58;;;;;;;12.05;2.03;;;;;;;;;;5020534;28;20029;-77
2022/10/25 10:13:43;;;;;;;9.43;1.88;;;;;;;;;;5037283;28;20025;-77
2022/10/25 10:16:15;;;;;;;9.82;1.83;;;;;;;;;;5023242;28;20029;-77
2022/10/25 10:18:42;;;;;;;11.02;2.28;;;;;;;;;;5013861;28;20343;-77
2022/10/25 10:21:12;;;;;;;8.18;1.67;;;;;;;;;;5001368;28;20030;-77
2022/10/25 10:23:43;;;;;;;8.82;1.98;;;;;;;;;;5012516;28;20030;-77
2022/10/25 10:26:27;;;;;;;7.45;1.80;;;;;;;;;;5019787;28;20026;-77
2022/10/25 10:29:05;;;;;;;3.33;1.10;;;;;;;;;;5020241;28;20029;-77
2022/10/25 10:31:41;;;;;;;11.25;1.73;;;;;;;;;;5024404;28;20018;-76
2022/10/25 10:34:25;;;;;;;10.70;1.77;;;;;;;;;;5020128;28;20025;-77
2022/10/25 10:37:04;;;;;;;11.00;1.70;;;;;;;;;;5011516;28;20030;-76
2022/10/25 10:39:31;;;;;;;9.63;1.70;;;;;;;;;;5030623;28;20389;-77
2022/10/25 10:42:04;;;;;;;7.63;1.73;;;;;;;;;;5008565;28;20071;-77
2022/10/25 10:44:33;;;;;;;8.30;1.60;;;;;;;;;;5019585;28;20036;-77
2022/10/25 10:46:59;;;;;;;5.80;1.52;;;;;;;;;;5026664;28;20017;-77
2022/10/25 10:49:33;;;;;;;11.93;2.33;;;;;;;;;;5019547;28;20025;-77
2022/10/25 10:52:01;;;;;;;9.80;1.50;;;;;;;;;;5005681;28;20036;-77
2022/10/25 10:54:28;;;;;;;11.32;1.45;;;;;;;;;;5016546;28;20411;-76
2022/10/25 10:56:59;;;;;;;10.35;0.93;;;;;;;;;;5022932;28;20030;-77
2022/10/25 10:59:36;;;;;;;11.00;2.30;;;;;;;;;;5019336;28;20040;-77
2022/10/25 11:02:17;;;;;;;11.52;1.70;;;;;;;;;;5037424;28;20140;-77
2022/10/25 11:04:47;;;;;;;9.82;1.55;;;;;;;;;;5019274;28;20036;-77
2022/10/25 11:07:19;;;;;;;7.53;1.88;;;;;;;;;;5005347;28;20029;-77
2022/10/25 11:09:45;;;;;;;5.50;0.85;;;;;;;;;;5013671;28;20053;-76
2022/10/25 11:12:13;;;;;;;7.38;1.15;;;;;;;;;;5017509;28;20053;-76
2022/10/25 11:14:40;;;;;;;8.55;1.40;;;;;;;;;;5023804;28;20354;-77
2022/10/25 11:17:18;;;;;;;3.33;0.90;;;;;;;;;;5019130;28;20044;-76
2022/10/25 11:19:47;;;;;;;6.07;0.90;;;;;;;;;;5001277;28;20030;-78
2022/10/25 11:22:32;;;;;;;3.88;0.90;;;;;;;;;;5018939;28;20026;-77
2022/10/25 11:25:13;;;;;;;3.20;0.60;;;;;;;;;;5036388;28;20105;-76
2022/10/25 11:27:42;;;;;;;5.90;1.05;;;;;;;;;;5016148;28;20116;-76
2022/10/25 11:30:11;;;;;;;3.08;0.73;;;;;;;;;;5008425;28;20052;-77
2022/10/25 11:32:40;;;;;;;2.22;0.77;;;;;;;;;;5019196;28;20406;-77
2022/10/25 11:35:25;;;;;;;2.13;0.80;;;;;;;;;;5027766;28;20518;-76
2022/10/25 11:37:53;;;;;;;6.15;1.20;;;;;;;;;;5012450;28;20040;-76
2022/10/25 11:40:28;;;;;;;5.68;1.25;;;;;;;;;;5008060;28;20021;-77
2022/10/25 11:42:57;;;;;;;4.65;0.75;;;;;;;;;;5015981;28;20026;-77
2022/10/25 11:45:29;;;;;;;11.32;1.08;;;;;;;;;;5006754;28;20036;-77
2022/10/25 11:47:55;;;;;;;7.65;1.73;;;;;;;;;;5006842;28;20121;-77
2022/10/25 11:50:24;;;;;;;4.65;0.80;;;;;;;;;;5029313;28;20030;-77
2022/10/25 11:52:56;;;;;;;5.65;0.70;;;;;;;;;;5024684;28;20044;-77
2022/10/25 11:55:31;;;;;;;5.10;0.85;;;;;;;;;;5015465;28;20167;-78
2022/10/25 11:58:23;;;;;;;3.58;0.70;;;;;;;;;;5025225;28;20037;-77
2022/10/25 12:01:08;;;;;;;5.67;1.37;;;;;;;;;;5007106;28;20057;-77
2022/10/25 12:03:37;;;;;;;5.43;0.93;;;;;;;;;;5018127;28;20095;-78
2022/10/25 12:06:12;;;;;;;3.90;1.10;;;;;;;;;;5005452;28;20079;-77
2022/10/25 12:08:41;;;;;;;7.15;0.88;;;;;;;;;;5017963;28;20126;-77
2022/10/25 12:11:10;;;;;;;3.05;0.57;;;;;;;;;;5035532;28;20037;-77
2022/10/25 12:13:43;;;;;;;7.78;1.02;;;;;;;;;;5004730;28;20029;-77
2022/10/25 12:16:11;;;;;;;6.95;1.27;;;;;;;;;;5001789;28;20447;-77
2022/10/25 12:18:42;;;;;;;3.83;0.63;;;;;;;;;;5012987;28;20033;-78
2022/10/25 12:21:17;;;;;;;9.40;1.20;;;;;;;;;;5020308;28;20323;-78
2022/10/25 12:23:46;;;;;;;2.47;0.60;;;;;;;;;;5017921;28;20022;-77
2022/10/25 12:26:25;;;;;;;3.22;1.23;;;;;;;;;;5018124;28;20032;-78
2022/10/25 12:28:51;;;;;;;7.82;1.00;;;;;;;;;;5018329;28;20160;-77
2022/10/25 12:31:23;;;;;;;3.38;0.60;;;;;;;;;;5026678;28;20049;-77
2022/10/25 12:33:54;;;;;;;7.57;1.52;;;;;;;;;;5018189;28;20515;-78
2022/10/25 12:36:26;;;;;;;5.20;1.20;;;;;;;;;;5007082;28;20041;-78
2022/10/25 12:38:52;;;;;;;10.07;0.82;;;;;;;;;;5017787;28;20099;-78
2022/10/25 12:41:24;;;;;;;2.28;0.70;;;;;;;;;;5021315;28;20362;-78
2022/10/25 12:44:00;;;;;;;2.55;0.52;;;;;;;;;;5007454;28;20033;-78
2022/10/25 12:46:38;;;;;;;6.90;0.68;;;;;;;;;;5022806;28;20041;-78
2022/10/25 12:49:07;;;;;;;5.05;0.88;;;;;;;;;;5018955;28;20084;-79
2022/10/25 12:51:39;;;;;;;3.92;0.50;;;;;;;;;;5020766;28;20027;-78
2022/10/25 12:54:23;;;;;;;2.05;0.70;;;;;;;;;;5005090;28;20033;-78
2022/10/25 12:56:58;;;;;;;5.57;0.80;;;;;;;;;;5036201;28;20021;-78
2022/10/25 12:59:39;;;;;;;4.13;0.35;;;;;;;;;;5038803;28;20104;-78
2022/10/25 13:02:24;;;;;;;3.42;0.55;;;;;;;;;;5034809;28;20061;-78
2022/10/25 13:05:07;;;;;;;2.88;0.82;;;;;;;;;;5018201;28;20033;-79
2022/10/25 13:07:34;;;;;;;3.67;0.68;;;;;;;;;;5021836;28;20029;-78
2022/10/25 13:10:14;;;;;;;3.55;0.52;;;;;;;;;;5010162;28;20026;-78
2022/10/25 13:12:41;;;;;;;2.40;0.45;;;;;;;;;;5032011;28;20030;-80
2022/10/25 13:15:16;;;;;;;3.30;0.80;;;;;;;;;;5029736;28;20025;-78
2022/10/25 13:17:43;;;;;;;2.83;0.47;;;;;;;;;;5007887;28;20065;-78
2022/10/25 13:20:19;;;;;;;4.43;0.60;;;;;;;;;;5021068;28;20049;-78
2022/10/25 13:22:45;;;;;;;3.60;0.73;;;;;;;;;;5007484;28;20025;-78
2022/10/25 13:25:37;;;;;;;3.45;0.52;;;;;;;;;;5038887;28;20108;-78
2022/10/25 13:28:15;;;;;;;3.70;0.82;;;;;;;;;;5020885;28;20084;-78
2022/10/25 13:30:42;;;;;;;4.13;0.80;;;;;;;;;;5024070;28;20026;-78
2022/10/25 13:33:26;;;;;;;2.05;0.52;;;;;;;;;;5013184;28;20339;-79
2022/10/25 13:35:52;;;;;;;2.45;0.52;;;;;;;;;;5033612;28;20018;-78
2022/10/25 13:38:32;;;;;;;3.28;0.55;;;;;;;;;;5014517;28;20125;-78
2022/10/25 13:41:07;;;;;;;3.65;0.52;;;;;;;;;;5006411;28;20037;-78
2022/10/25 13:43:33;;;;;;;5.97;0.65;;;;;;;;;;5014192;28;20469;-78
2022/10/25 13:45:59;;;;;;;4.25;0.85;;;;;;;;;;5014193;28;20045;-78
2022/10/25 13:48:28;;;;;;;5.35;0.80;;;;;;;;;;5026787;28;20025;-78
2022/10/25 13:50:54;;;;;;;5.10;0.82;;;;;;;;;;5009577;28;20430;-78
2022/10/25 13:53:23;;;;;;;4.68;0.60;;;;;;;;;;5013214;28;20427;-78
2022/10/25 13:56:11;;;;;;;3.30;0.70;;;;;;;;;;5010032;28;20171;-78
2022/10/25 13:58:48;;;;;;;6.57;1.30;;;;;;;;;;5027830;28;20033;-79
2022/10/25 14:01:17;;;;;;;7.03;1.00;;;;;;;;;;5027095;28;20033;-78
2022/10/25 14:03:53;;;;;;;3.58;0.57;;;;;;;;;;5006362;28;20029;-78
2022/10/25 14:06:31;;;;;;;3.17;0.73;;;;;;;;;;5014684;28;20874;-77
2022/10/25 14:09:08;;;;;;;6.00;0.90;;;;;;;;;;5026657;28;20057;-78
2022/10/25 14:11:43;;;;;;;9.15;1.95;;;;;;;;;;5011615;28;20053;-78
2022/10/25 14:14:28;;;;;;;6.75;0.75;;;;;;;;;;5015491;28;20458;-78
2022/10/25 14:16:59;;;;;;;8.52;0.80;;;;;;;;;;5007219;28;20120;-79
2022/10/25 14:19:37;;;;;;;5.55;1.23;;;;;;;;;;5023313;28;20037;-79
2022/10/25 14:22:10;;;;;;;3.03;0.68;;;;;;;;;;5015377;28;21618;-78
2022/10/25 14:24:37;;;;;;;7.25;1.30;;;;;;;;;;5025472;28;20033;-78
2022/10/25 14:27:04;;;;;;;6.35;1.00;;;;;;;;;;5028411;28;20041;-78
2022/10/25 14:29:32;;;;;;;5.05;0.60;;;;;;;;;;5008014;28;20041;-78
2022/10/25 14:31:58;;;;;;;3.17;1.10;;;;;;;;;;5014365;28;20030;-78
2022/10/25 14:34:29;;;;;;;3.60;0.60;;;;;;;;;;5026733;28;20072;-78
2022/10/25 14:36:56;;;;;;;4.35;0.55;;;;;;;;;;5007991;28;20037;-78
2022/10/25 14:39:23;;;;;;;3.92;1.35;;;;;;;;;;5026402;28;20112;-78
2022/10/25 14:41:55;;;;;;;2.67;0.65;;;;;;;;;;5027829;28;20119;-78
2022/10/25 14:44:32;;;;;;;3.42;0.68;;;;;;;;;;5006839;28;20026;-78
2022/10/25 14:46:59;;;;;;;2.65;1.00;;;;;;;;;;5010910;28;20037;-78
2022/10/25 14:49:26;;;;;;;5.68;1.40;;;;;;;;;;5025746;28;20109;-78
2022/10/25 14:51:58;;;;;;;3.83;0.80;;;;;;;;;;5027872;28;20045;-78
2022/10/25 14:54:24;;;;;;;5.38;0.88;;;;;;;;;;5015473;28;20083;-79
2022/10/25 14:56:53;;;;;;;3.20;0.70;;;;;;;;;;5007603;28;20446;-78
2022/10/25 14:59:20;;;;;;;4.20;0.93;;;;;;;;;;5010648;28;20100;-78